Time;durP1;ratioP1;P1;durP2;ratioP2;P2;SDS_P1;SDS_P2;PMS_P1;PMS_P2;Temp;Humidity;BMP_temperature;BMP_pressure;BME280_temperature;BME280_humidity;BME280_pressure;Samples;Min_cycle;Max_cycle;Signal;HPM_P1;HPM_P2
2022/07/28 00:01:10;;;;;;;0.77;0.20;;;15.90;61.60;;;;;;4772208;29;20043;-85
2022/07/28 00:03:39;;;;;;;0.40;0.10;;;15.90;61.60;;;;;;4764046;29;20055;-85
2022/07/28 00:06:06;;;;;;;2.63;0.10;;;15.90;61.60;;;;;;4766927;30;20535;-85
2022/07/28 00:08:33;;;;;;;1.52;0.30;;;15.90;61.60;;;;;;4779752;29;20051;-84
2022/07/28 00:11:00;;;;;;;0.50;0.10;;;15.90;61.60;;;;;;4781825;29;20059;-86
2022/07/28 00:13:27;;;;;;;0.77;0.15;;;15.90;61.60;;;;;;4782348;29;20055;-86
2022/07/28 00:15:54;;;;;;;0.52;0.10;;;15.90;61.60;;;;;;4775120;29;20047;-86
2022/07/28 00:18:21;;;;;;;0.95;0.20;;;15.90;61.70;;;;;;4800416;29;20034;-86
2022/07/28 00:20:48;;;;;;;2.40;0.20;;;15.90;61.70;;;;;;4760900;30;20083;-85
2022/07/28 00:23:14;;;;;;;0.70;0.17;;;15.90;61.70;;;;;;4756346;30;20056;-85
2022/07/28 00:25:44;;;;;;;0.77;0.10;;;15.90;61.70;;;;;;4801205;29;20062;-85
2022/07/28 00:28:11;;;;;;;1.65;0.30;;;15.80;61.70;;;;;;4742064;30;20124;-85
2022/07/28 00:30:38;;;;;;;1.13;0.20;;;15.80;61.80;;;;;;4800532;29;21759;-85
2022/07/28 00:33:05;;;;;;;0.80;0.10;;;15.80;61.90;;;;;;4788803;29;20046;-86
2022/07/28 00:35:32;;;;;;;2.88;0.30;;;15.80;62.00;;;;;;4790931;29;20073;-86
2022/07/28 00:37:59;;;;;;;3.67;0.10;;;15.70;62.10;;;;;;4790870;29;20098;-85
2022/07/28 00:43:14;;;;;;;0.60;0.20;;;15.70;62.30;;;;;;4782574;29;20489;-85
2022/07/28 00:45:41;;;;;;;0.82;0.10;;;15.60;62.30;;;;;;4776067;29;20073;-85
2022/07/28 00:48:08;;;;;;;0.63;0.10;;;15.60;62.40;;;;;;4786818;29;20075;-85
2022/07/28 00:50:38;;;;;;;0.32;0.10;;;15.60;62.40;;;;;;4771055;30;20434;-85
2022/07/28 00:53:06;;;;;;;1.38;0.10;;;15.60;62.40;;;;;;4776667;29;20104;-84
2022/07/28 00:55:35;;;;;;;0.43;0.13;;;15.60;62.50;;;;;;4810631;29;20407;-85
2022/07/28 00:58:21;;;;;;;0.35;0.10;;;15.60;62.60;;;;;;4786234;29;20044;-85
2022/07/28 01:00:49;;;;;;;1.60;0.40;;;15.60;62.70;;;;;;4791266;29;20452;-86
2022/07/28 01:03:15;;;;;;;1.08;0.10;;;15.60;62.70;;;;;;4789105;30;20051;-86
2022/07/28 01:06:08;;;;;;;1.65;0.10;;;15.60;62.80;;;;;;4804137;29;20134;-86
2022/07/28 01:08:48;;;;;;;;;;;15.60;62.80;;;;;;4774666;30;20059;-85
2022/07/28 01:11:26;;;;;;;1.73;0.30;;;15.50;62.90;;;;;;4778284;30;20445;-85
2022/07/28 01:14:22;;;;;;;2.72;0.30;;;15.50;63.00;;;;;;4762706;29;20086;-85
2022/07/28 01:16:55;;;;;;;0.75;0.17;;;15.50;63.00;;;;;;4758033;29;20065;-84
2022/07/28 01:19:34;;;;;;;0.77;0.13;;;15.40;63.10;;;;;;4800077;29;20105;-85
2022/07/28 01:22:03;;;;;;;0.75;0.10;;;15.40;63.20;;;;;;4781814;29;20108;-85
2022/07/28 01:24:39;;;;;;;1.10;0.20;;;15.30;63.30;;;;;;4786822;29;20047;-86
2022/07/28 01:27:37;;;;;;;0.85;0.15;;;15.30;63.40;;;;;;4770442;30;20075;-85
2022/07/28 01:30:42;;;;;;;3.17;0.20;;;15.30;63.50;;;;;;4773906;30;20150;-85
2022/07/28 01:33:30;;;;;;;1.30;0.10;;;15.20;63.60;;;;;;4801075;29;20064;-85
2022/07/28 01:36:05;;;;;;;0.52;0.10;;;15.10;63.80;;;;;;4781316;29;20050;-85
2022/07/28 01:38:34;;;;;;;0.80;0.10;;;15.10;63.80;;;;;;4779862;29;20412;-85
2022/07/28 01:41:02;;;;;;;0.70;0.10;;;15.10;64.00;;;;;;4779897;30;20174;-85
2022/07/28 01:43:35;;;;;;;3.13;0.35;;;15.00;64.00;;;;;;4793775;29;20063;-85
2022/07/28 01:46:02;;;;;;;;;;;15.00;64.20;;;;;;4773937;30;20458;-86
2022/07/28 01:48:31;;;;;;;1.38;0.10;;;14.90;64.20;;;;;;4786596;30;19926;-85
2022/07/28 01:51:00;;;;;;;0.40;0.10;;;14.80;64.30;;;;;;4780484;29;20085;-86
2022/07/28 01:53:31;;;;;;;0.43;0.10;;;14.80;64.40;;;;;;4801308;29;20108;-85
2022/07/28 01:56:06;;;;;;;1.35;0.15;;;14.80;64.50;;;;;;4792517;29;20122;-83
2022/07/28 01:58:34;;;;;;;1.25;0.20;;;14.80;64.60;;;;;;4813678;29;20083;-86
2022/07/28 02:01:03;;;;;;;0.73;0.10;;;14.70;64.70;;;;;;4789288;30;20074;-85
2022/07/28 02:03:33;;;;;;;0.63;0.20;;;14.70;64.80;;;;;;4796209;29;20130;-85
2022/07/28 02:06:03;;;;;;;0.28;0.10;;;14.70;65.00;;;;;;4813520;29;20074;-85
2022/07/28 02:08:33;;;;;;;1.00;0.10;;;14.70;65.00;;;;;;4803081;29;20055;-84
2022/07/28 02:13:48;;;;;;;0.73;0.10;;;14.60;65.10;;;;;;4783681;29;20054;-85
2022/07/28 02:16:19;;;;;;;0.57;0.20;;;14.60;65.20;;;;;;4798071;29;20446;-86
2022/07/28 02:18:49;;;;;;;1.30;0.10;;;14.50;65.20;;;;;;4787972;29;20043;-85
2022/07/28 02:21:17;;;;;;;1.50;0.20;;;14.50;65.40;;;;;;4788845;29;20069;-85
2022/07/28 02:23:48;;;;;;;0.10;0.10;;;14.50;65.50;;;;;;4803625;29;20139;-84
2022/07/28 02:26:17;;;;;;;0.60;0.10;;;14.40;65.50;;;;;;4782247;29;20055;-85
2022/07/28 02:28:51;;;;;;;0.73;0.10;;;14.40;65.70;;;;;;4787687;29;20084;-85
2022/07/28 02:31:24;;;;;;;1.95;0.20;;;14.40;65.80;;;;;;4772452;30;20051;-85
2022/07/28 02:33:56;;;;;;;0.98;0.20;;;14.30;65.80;;;;;;4772857;30;20458;-85
2022/07/28 02:36:36;;;;;;;0.77;0.10;;;14.30;66.00;;;;;;4802189;29;20100;-85
2022/07/28 02:39:19;;;;;;;0.40;0.10;;;14.30;66.00;;;;;;4788596;30;20561;-85
2022/07/28 02:41:54;;;;;;;0.40;0.20;;;14.30;66.10;;;;;;4787494;30;20508;-85
2022/07/28 02:44:27;;;;;;;1.13;0.20;;;14.20;66.20;;;;;;4772353;30;20124;-85
2022/07/28 02:46:57;;;;;;;0.80;0.10;;;14.20;66.30;;;;;;4774171;30;20503;-85
2022/07/28 02:49:29;;;;;;;0.55;0.10;;;14.20;66.30;;;;;;4790408;29;20145;-85
2022/07/28 02:51:59;;;;;;;1.02;0.22;;;14.20;66.50;;;;;;4796155;29;20047;-86
2022/07/28 02:54:28;;;;;;;1.88;0.32;;;14.20;66.50;;;;;;4777260;29;20059;-86
2022/07/28 02:56:57;;;;;;;0.55;0.20;;;14.10;66.50;;;;;;4799007;29;20051;-85
2022/07/28 02:59:27;;;;;;;0.57;0.10;;;14.20;66.60;;;;;;4788793;30;20092;-85
2022/07/28 03:01:55;;;;;;;2.28;0.20;;;14.10;66.60;;;;;;4764473;29;20139;-85
2022/07/28 03:07:09;;;;;;;0.40;0.10;;;14.10;66.60;;;;;;4770700;29;20460;-86
2022/07/28 03:09:40;;;;;;;1.27;0.15;;;14.10;66.70;;;;;;4796300;29;20047;-85
2022/07/28 03:12:08;;;;;;;0.38;0.10;;;14.10;66.80;;;;;;4798087;29;20500;-85
2022/07/28 03:14:38;;;;;;;3.22;0.30;;;14.10;66.80;;;;;;4781852;30;20058;-85
2022/07/28 03:17:05;;;;;;;2.30;0.20;;;14.10;66.80;;;;;;4795098;29;20051;-85
2022/07/28 03:19:33;;;;;;;1.63;0.20;;;14.10;66.80;;;;;;4794029;29;20073;-85
2022/07/28 03:22:00;;;;;;;1.60;0.13;;;14.10;66.80;;;;;;4787730;29;20063;-86
2022/07/28 03:24:31;;;;;;;0.40;0.10;;;14.10;66.80;;;;;;4771770;30;20060;-85
2022/07/28 03:27:19;;;;;;;0.30;0.20;;;14.10;66.90;;;;;;4777109;30;20138;-85
2022/07/28 03:29:52;;;;;;;0.28;0.15;;;14.10;67.00;;;;;;4796202;29;20454;-85
2022/07/28 03:32:22;;;;;;;0.65;0.20;;;14.10;67.00;;;;;;4787467;29;20047;-86
2022/07/28 03:34:51;;;;;;;1.67;0.10;;;14.10;67.00;;;;;;4776096;30;20051;-86
2022/07/28 03:37:26;;;;;;;0.50;0.20;;;14.10;67.00;;;;;;4786606;29;20412;-86
2022/07/28 03:39:56;;;;;;;0.95;0.20;;;14.10;66.90;;;;;;4792455;29;20043;-85
2022/07/28 03:42:24;;;;;;;0.80;0.10;;;14.10;66.90;;;;;;4775720;29;20078;-85
2022/07/28 03:44:52;;;;;;;0.40;0.20;;;14.10;67.00;;;;;;4802615;29;20067;-85
2022/07/28 03:47:23;;;;;;;0.70;0.10;;;14.00;67.00;;;;;;4764758;30;20108;-86
2022/07/28 03:49:50;;;;;;;2.00;0.15;;;14.10;67.10;;;;;;4787319;29;20505;-85
2022/07/28 03:52:18;;;;;;;0.55;0.17;;;14.10;67.10;;;;;;4790284;29;20047;-86
2022/07/28 03:54:45;;;;;;;1.08;0.10;;;14.00;67.10;;;;;;4788237;29;20073;-86
2022/07/28 03:57:13;;;;;;;0.35;0.10;;;14.00;67.20;;;;;;4806382;29;20213;-86
2022/07/28 03:59:40;;;;;;;0.30;0.10;;;14.00;67.30;;;;;;4783280;30;20086;-85
2022/07/28 04:02:07;;;;;;;1.15;0.20;;;14.00;67.30;;;;;;4778898;29;20147;-86
2022/07/28 04:04:34;;;;;;;1.88;0.10;;;14.00;67.30;;;;;;4785433;29;20066;-86
2022/07/28 04:07:01;;;;;;;1.35;0.20;;;14.00;67.30;;;;;;4785792;30;20122;-85
2022/07/28 04:09:28;;;;;;;1.30;0.15;;;14.00;67.30;;;;;;4795259;29;20051;-85
2022/07/28 04:11:55;;;;;;;0.25;0.10;;;14.10;67.40;;;;;;4775976;29;20051;-86
2022/07/28 04:14:22;;;;;;;2.28;0.20;;;14.10;67.40;;;;;;4771417;30;20044;-85
2022/07/28 04:16:49;;;;;;;1.23;0.10;;;14.10;67.40;;;;;;4804205;29;20116;-85
2022/07/28 04:19:16;;;;;;;0.38;0.10;;;14.10;67.40;;;;;;4784657;29;20074;-85
2022/07/28 04:21:43;;;;;;;0.65;0.20;;;14.10;67.40;;;;;;4791874;29;20141;-85
2022/07/28 04:24:10;;;;;;;0.45;0.20;;;14.10;67.40;;;;;;4800813;29;20138;-85
2022/07/28 04:26:37;;;;;;;0.73;0.10;;;14.10;67.30;;;;;;4782030;29;20154;-85
2022/07/28 04:29:04;;;;;;;0.40;0.10;;;14.20;67.30;;;;;;4789891;29;20818;-85
2022/07/28 04:31:31;;;;;;;2.45;0.30;;;14.20;67.30;;;;;;4782062;29;20079;-85
2022/07/28 04:33:59;;;;;;;0.40;0.20;;;14.20;67.30;;;;;;4782862;30;20096;-85
2022/07/28 04:36:26;;;;;;;1.73;0.30;;;14.20;67.40;;;;;;4790941;30;20075;-85
2022/07/28 04:38:53;;;;;;;0.57;0.20;;;14.20;68.00;;;;;;4790828;30;20048;-85
2022/07/28 04:41:20;;;;;;;2.83;0.40;;;14.30;67.40;;;;;;4772738;30;20142;-85
2022/07/28 04:43:49;;;;;;;2.13;0.25;;;14.30;67.40;;;;;;4791086;29;20112;-85
2022/07/28 04:46:16;;;;;;;0.63;0.28;;;14.30;67.40;;;;;;4784972;29;20474;-85
2022/07/28 04:48:44;;;;;;;1.25;0.20;;;14.30;67.40;;;;;;4768881;30;20059;-85
2022/07/28 04:51:11;;;;;;;1.38;0.30;;;14.40;67.50;;;;;;4804244;29;20442;-83
2022/07/28 04:53:38;;;;;;;2.88;0.20;;;14.40;67.40;;;;;;4802675;29;20055;-84
2022/07/28 04:56:05;;;;;;;0.85;0.20;;;14.40;67.40;;;;;;4785236;29;20179;-87
2022/07/28 04:58:32;;;;;;;0.55;0.20;;;14.40;67.40;;;;;;4786983;30;20056;-85
2022/07/28 05:00:59;;;;;;;0.88;0.10;;;14.50;67.40;;;;;;4767283;30;20818;-86
2022/07/28 05:03:26;;;;;;;0.73;0.45;;;14.50;67.40;;;;;;4775787;29;20197;-85
2022/07/28 05:06:00;;;;;;;1.75;0.20;;;14.50;68.00;;;;;;4789356;29;20912;-89
2022/07/28 05:08:27;;;;;;;0.40;0.20;;;14.50;67.40;;;;;;4783722;29;20058;-89
2022/07/28 05:10:55;;;;;;;1.13;0.20;;;14.60;67.30;;;;;;4765988;30;20201;-88
2022/07/28 05:13:22;;;;;;;0.57;0.30;;;14.70;67.30;;;;;;4760360;30;20057;-89
2022/07/28 05:15:50;;;;;;;1.05;0.20;;;14.70;67.20;;;;;;4774469;30;20389;-88
2022/07/28 05:18:20;;;;;;;0.47;0.20;;;14.80;67.10;;;;;;4780131;29;20539;-86
2022/07/28 05:20:47;;;;;;;2.63;0.10;;;14.80;67.00;;;;;;4795330;29;20075;-88
2022/07/28 05:23:16;;;;;;;1.30;0.10;;;14.90;67.00;;;;;;4751119;29;20083;-87
2022/07/28 05:25:45;;;;;;;0.90;0.10;;;14.90;67.00;;;;;;4768365;29;20413;-87
2022/07/28 05:28:12;;;;;;;1.90;0.17;;;14.90;66.90;;;;;;4773453;30;20047;-83
2022/07/28 05:30:39;;;;;;;1.75;0.30;;;15.00;66.90;;;;;;4798516;29;20082;-85
2022/07/28 05:33:05;;;;;;;1.02;0.20;;;15.00;67.00;;;;;;4789997;29;20416;-83
2022/07/28 05:35:32;;;;;;;2.58;0.20;;;15.00;66.90;;;;;;4788630;29;20078;-85
2022/07/28 05:37:59;;;;;;;1.60;0.20;;;15.00;66.90;;;;;;4802666;29;20401;-85
2022/07/28 05:40:29;;;;;;;1.52;0.22;;;15.10;66.90;;;;;;4778752;30;20051;-88
2022/07/28 05:42:56;;;;;;;1.67;0.20;;;15.10;66.80;;;;;;4788737;29;20055;-84
2022/07/28 05:45:23;;;;;;;1.92;0.30;;;15.20;66.70;;;;;;4778174;29;20093;-84
2022/07/28 05:47:51;;;;;;;1.20;0.30;;;15.20;66.70;;;;;;4787554;29;20063;-85
2022/07/28 05:50:24;;;;;;;1.08;0.30;;;15.30;66.60;;;;;;4788464;30;20070;-85
2022/07/28 05:52:51;;;;;;;2.83;0.20;;;15.40;66.50;;;;;;4773570;30;20493;-84
2022/07/28 05:55:18;;;;;;;3.95;0.30;;;15.40;66.40;;;;;;4804220;29;20075;-85
2022/07/28 05:57:45;;;;;;;0.98;0.20;;;15.50;66.40;;;;;;4788134;30;20097;-84
2022/07/28 06:00:15;;;;;;;2.38;0.60;;;15.60;67.00;;;;;;4794696;29;20051;-84
2022/07/28 06:02:47;;;;;;;1.45;0.40;;;15.60;66.20;;;;;;4773383;29;20056;-86
2022/07/28 06:05:17;;;;;;;1.08;0.30;;;15.80;66.00;;;;;;4797406;29;20074;-85
2022/07/28 06:07:46;;;;;;;1.95;0.17;;;15.90;66.30;;;;;;4773841;29;20070;-85
2022/07/28 06:10:16;;;;;;;1.40;0.20;;;16.00;65.80;;;;;;4792770;29;20047;-86
2022/07/28 06:12:50;;;;;;;1.35;0.20;;;16.10;65.60;;;;;;4803039;29;20052;-86
2022/07/28 06:15:21;;;;;;;0.10;0.10;;;16.20;65.40;;;;;;4788478;29;20051;-86
2022/07/28 06:17:51;;;;;;;0.82;0.20;;;16.30;65.40;;;;;;4788050;29;20050;-85
2022/07/28 06:20:19;;;;;;;2.10;0.20;;;16.40;65.20;;;;;;4797944;29;20101;-86
2022/07/28 06:22:51;;;;;;;1.52;0.13;;;16.50;65.10;;;;;;4801543;29;20130;-86
2022/07/28 06:25:26;;;;;;;1.40;0.10;;;16.50;65.00;;;;;;4777906;30;20087;-85
2022/07/28 06:27:59;;;;;;;1.02;0.20;;;16.60;64.90;;;;;;4784755;29;20067;-85
2022/07/28 06:30:26;;;;;;;1.52;0.17;;;16.70;64.80;;;;;;4804037;29;20619;-85
2022/07/28 06:32:54;;;;;;;0.82;0.20;;;16.80;64.70;;;;;;4781476;30;20058;-77
2022/07/28 06:35:21;;;;;;;1.20;0.30;;;16.80;64.50;;;;;;4763403;30;20517;-76
2022/07/28 06:37:51;;;;;;;3.60;0.20;;;16.80;64.50;;;;;;4789333;29;20096;-77
2022/07/28 06:40:19;;;;;;;1.80;0.20;;;16.90;64.50;;;;;;4763075;30;20124;-77
2022/07/28 06:42:48;;;;;;;0.95;0.10;;;17.00;64.40;;;;;;4754426;30;20438;-77
2022/07/28 06:45:16;;;;;;;1.70;0.20;;;17.10;64.20;;;;;;4792370;29;20079;-76
2022/07/28 06:47:51;;;;;;;0.52;0.20;;;17.30;64.10;;;;;;4772966;30;20044;-77
2022/07/28 06:50:19;;;;;;;0.77;0.20;;;17.40;64.20;;;;;;4771529;29;20449;-77
2022/07/28 06:52:54;;;;;;;2.28;0.20;;;17.50;63.40;;;;;;4789240;29;20075;-77
2022/07/28 06:55:21;;;;;;;2.25;0.10;;;17.60;63.40;;;;;;4774925;29;20051;-77
2022/07/28 06:57:48;;;;;;;2.65;0.20;;;17.60;63.20;;;;;;4790562;29;20467;-77
2022/07/28 07:00:15;;;;;;;2.42;0.20;;;17.60;63.10;;;;;;4776443;30;20126;-77
2022/07/28 07:02:42;;;;;;;1.15;0.10;;;17.70;63.00;;;;;;4746601;29;20074;-77
2022/07/28 07:05:11;;;;;;;2.20;0.32;;;17.70;62.90;;;;;;4801171;29;20512;-77
2022/07/28 07:07:38;;;;;;;0.60;0.20;;;17.60;62.80;;;;;;4746270;30;20469;-77
2022/07/28 07:10:09;;;;;;;1.33;0.20;;;17.70;62.80;;;;;;4785642;29;20080;-77
2022/07/28 07:12:36;;;;;;;1.65;0.28;;;17.70;62.70;;;;;;4791629;29;20063;-77
2022/07/28 07:15:05;;;;;;;2.90;0.20;;;17.70;62.50;;;;;;4751520;30;20084;-77
2022/07/28 07:17:32;;;;;;;1.85;0.10;;;17.80;62.50;;;;;;4806159;29;20062;-77
2022/07/28 07:19:59;;;;;;;0.77;0.20;;;17.80;62.20;;;;;;4797346;29;20500;-77
2022/07/28 07:22:25;;;;;;;1.17;0.28;;;17.90;62.10;;;;;;4764240;30;20067;-77
2022/07/28 07:24:53;;;;;;;1.38;0.28;;;17.90;61.90;;;;;;4777550;30;20116;-77
2022/07/28 07:27:23;;;;;;;1.58;0.20;;;18.00;61.70;;;;;;4788787;29;20104;-77
2022/07/28 07:29:54;;;;;;;0.90;0.20;;;18.10;61.40;;;;;;4800063;29;20130;-77
2022/07/28 07:32:21;;;;;;;0.65;0.10;;;18.20;61.10;;;;;;4792707;29;20087;-77
2022/07/28 07:34:48;;;;;;;0.47;0.17;;;18.40;60.90;;;;;;4764954;30;20108;-77
2022/07/28 07:37:16;;;;;;;4.75;0.30;;;18.50;61.30;;;;;;4776500;30;20039;-77
2022/07/28 07:39:44;;;;;;;0.63;0.20;;;18.60;60.20;;;;;;4782222;29;20056;-76
2022/07/28 07:42:11;;;;;;;1.00;0.10;;;18.70;60.70;;;;;;4780368;30;20074;-86
2022/07/28 07:44:38;;;;;;;3.10;0.20;;;18.80;59.90;;;;;;4771573;30;20224;-85
2022/07/28 07:47:10;;;;;;;0.73;0.13;;;18.90;59.60;;;;;;4760620;29;20567;-86
2022/07/28 07:49:37;;;;;;;;;;;18.90;59.40;;;;;;4790107;29;20201;-85
2022/07/28 07:52:12;;;;;;;0.75;0.00;;;18.80;59.40;;;;;;4778819;29;19933;-85
2022/07/28 07:54:39;;;;;;;0.60;0.10;;;18.80;59.40;;;;;;4780189;29;20047;-85
2022/07/28 07:57:06;;;;;;;0.75;0.20;;;18.80;59.10;;;;;;4762692;30;20458;-85
2022/07/28 07:59:33;;;;;;;1.15;0.10;;;18.80;58.90;;;;;;4771603;30;20039;-85
2022/07/28 08:02:00;;;;;;;0.75;0.17;;;18.90;58.70;;;;;;4786337;30;20083;-84
2022/07/28 08:04:28;;;;;;;0.95;0.20;;;18.90;58.50;;;;;;4785483;29;20445;-77
2022/07/28 08:06:55;;;;;;;0.20;0.10;;;19.00;58.20;;;;;;4785783;29;20043;-77
2022/07/28 08:09:22;;;;;;;0.88;0.20;;;19.20;58.00;;;;;;4748581;29;20054;-77
2022/07/28 08:11:49;;;;;;;0.20;0.10;;;19.30;57.70;;;;;;4789618;29;20047;-76
2022/07/28 08:14:16;;;;;;;0.08;0.08;;;19.30;57.50;;;;;;4771724;30;20069;-77
2022/07/28 08:16:44;;;;;;;0.30;0.10;;;19.40;58.10;;;;;;4768319;30;20043;-77
2022/07/28 08:19:11;;;;;;;0.75;0.30;;;19.30;57.30;;;;;;4785241;29;20059;-77
2022/07/28 08:21:38;;;;;;;0.47;0.10;;;19.30;57.30;;;;;;4786145;29;20082;-77
2022/07/28 08:24:05;;;;;;;1.23;0.10;;;19.30;57.20;;;;;;4777181;29;20078;-77
2022/07/28 08:26:32;;;;;;;0.38;0.10;;;19.30;57.00;;;;;;4789606;29;20054;-77
2022/07/28 08:28:59;;;;;;;0.85;0.10;;;19.40;56.90;;;;;;4789574;29;20070;-76
2022/07/28 08:31:26;;;;;;;0.10;0.10;;;19.40;56.90;;;;;;4793761;29;20073;-77
2022/07/28 08:33:54;;;;;;;0.95;0.25;;;19.50;56.70;;;;;;4788205;29;20396;-77
2022/07/28 08:36:21;;;;;;;1.13;0.35;;;19.70;56.40;;;;;;4775640;29;20047;-77
2022/07/28 08:38:49;;;;;;;0.30;0.10;;;19.80;55.80;;;;;;4771940;29;20051;-75
2022/07/28 08:41:24;;;;;;;0.77;0.10;;;19.80;55.70;;;;;;4799616;29;20067;-77
2022/07/28 08:44:02;;;;;;;0.88;0.13;;;19.90;55.50;;;;;;4796809;29;20096;-77
2022/07/28 08:46:37;;;;;;;0.50;0.20;;;20.00;55.40;;;;;;4789997;29;20059;-77
2022/07/28 08:49:07;;;;;;;1.13;0.10;;;20.20;55.20;;;;;;4789515;29;20047;-77
2022/07/28 08:51:36;;;;;;;0.30;0.10;;;20.20;54.90;;;;;;4791020;29;20059;-77
2022/07/28 08:54:04;;;;;;;0.40;0.15;;;20.40;54.80;;;;;;4782357;29;20079;-77
2022/07/28 08:56:32;;;;;;;0.70;0.10;;;20.50;54.60;;;;;;4764408;30;20444;-77
2022/07/28 08:59:00;;;;;;;0.57;0.10;;;20.60;54.40;;;;;;4782652;29;20062;-75
2022/07/28 09:01:27;;;;;;;0.25;0.10;;;20.80;54.40;;;;;;4792157;29;20077;-75
2022/07/28 09:04:07;;;;;;;1.23;0.10;;;20.90;54.10;;;;;;4774671;29;20051;-77
2022/07/28 09:06:40;;;;;;;0.38;0.10;;;21.10;53.90;;;;;;4793744;29;20154;-77
2022/07/28 09:09:08;;;;;;;1.10;0.10;;;21.10;54.30;;;;;;4787972;29;20043;-77
2022/07/28 09:11:36;;;;;;;0.10;0.05;;;21.30;53.50;;;;;;4786338;29;20472;-77
2022/07/28 09:14:04;;;;;;;0.30;0.10;;;21.30;53.20;;;;;;4777671;30;20079;-77
2022/07/28 09:16:32;;;;;;;1.25;0.35;;;21.20;53.10;;;;;;4790583;29;20134;-77
2022/07/28 09:18:58;;;;;;;0.43;0.10;;;21.10;53.20;;;;;;4793562;29;20047;-77
2022/07/28 09:21:26;;;;;;;0.45;0.20;;;21.10;52.90;;;;;;4768375;30;20135;-78
2022/07/28 09:23:53;;;;;;;0.47;0.08;;;21.10;52.90;;;;;;4812024;29;20555;-77
2022/07/28 09:26:20;;;;;;;0.20;0.08;;;21.10;52.80;;;;;;4770207;30;20159;-76
2022/07/28 09:28:53;;;;;;;0.57;0.20;;;21.10;52.50;;;;;;4800511;29;20463;-75
2022/07/28 09:31:23;;;;;;;0.63;0.17;;;21.10;52.50;;;;;;4792538;29;20063;-74
2022/07/28 09:33:59;;;;;;;0.20;0.10;;;20.90;52.50;;;;;;4760363;30;20469;-75
2022/07/28 09:36:37;;;;;;;0.30;0.10;;;20.80;52.70;;;;;;4786883;29;20462;-75
2022/07/28 09:39:04;;;;;;;0.50;0.15;;;20.90;52.70;;;;;;4785242;29;20376;-75
2022/07/28 09:41:57;;;;;;;0.50;0.10;;;21.00;52.60;;;;;;4810480;29;20094;-76
2022/07/28 09:44:26;;;;;;;0.30;0.10;;;21.30;52.20;;;;;;4806034;29;20059;-75
2022/07/28 09:46:56;;;;;;;0.63;0.10;;;21.40;51.70;;;;;;4783689;29;20485;-75
2022/07/28 09:49:43;;;;;;;0.25;0.10;;;21.60;51.40;;;;;;4786887;29;20055;-75
2022/07/28 09:52:11;;;;;;;0.43;0.10;;;21.80;50.90;;;;;;4777035;29;20091;-75
2022/07/28 09:54:37;;;;;;;0.55;0.10;;;21.90;50.50;;;;;;4794466;29;20066;-75
2022/07/28 09:57:10;;;;;;;0.55;0.10;;;21.80;50.50;;;;;;4786918;29;20050;-75
2022/07/28 09:59:44;;;;;;;0.38;0.10;;;22.00;50.50;;;;;;4783819;29;20051;-74
2022/07/28 10:02:30;;;;;;;0.20;0.10;;;22.20;50.40;;;;;;4771216;29;20050;-75
2022/07/28 10:05:01;;;;;;;0.52;0.22;;;22.40;50.10;;;;;;4796127;29;20127;-75
2022/07/28 10:07:29;;;;;;;0.20;0.10;;;22.50;49.80;;;;;;4785213;29;20095;-74
2022/07/28 10:10:07;;;;;;;0.20;0.10;;;22.60;49.80;;;;;;4778052;29;20051;-75
2022/07/28 10:12:36;;;;;;;0.10;0.00;;;22.70;49.60;;;;;;4802247;29;20109;-74
2022/07/28 10:18:16;;;;;;;;;;;22.90;49.30;;;;;;4786591;29;20399;-75
2022/07/28 10:20:43;;;;;;;0.52;0.13;;;23.00;49.40;;;;;;4792109;29;19925;-75
2022/07/28 10:23:13;;;;;;;0.65;0.13;;;23.10;49.40;;;;;;4772227;29;20462;-74
2022/07/28 10:25:43;;;;;;;0.10;0.10;;;23.10;49.10;;;;;;4783467;29;20489;-75
2022/07/28 10:28:15;;;;;;;0.22;0.10;;;23.20;48.90;;;;;;4793273;29;20107;-75
2022/07/28 10:30:43;;;;;;;0.77;0.10;;;23.30;49.00;;;;;;4756276;30;20055;-74
2022/07/28 10:33:15;;;;;;;1.20;0.10;;;23.10;48.20;;;;;;4768299;30;20088;-75
2022/07/28 10:35:47;;;;;;;0.45;0.10;;;23.00;48.40;;;;;;4792500;29;20059;-75
2022/07/28 10:38:21;;;;;;;0.50;0.10;;;23.00;49.10;;;;;;4773406;30;20059;-74
2022/07/28 10:40:50;;;;;;;0.17;0.00;;;23.20;48.40;;;;;;4772927;30;20573;-75
2022/07/28 10:43:18;;;;;;;0.20;0.10;;;23.40;48.10;;;;;;4788119;29;20465;-75
2022/07/28 10:45:46;;;;;;;0.30;0.00;;;23.50;47.70;;;;;;4776298;30;20560;-74
2022/07/28 10:48:32;;;;;;;0.50;0.10;;;23.60;47.50;;;;;;4777795;29;20531;-75
2022/07/28 10:51:00;;;;;;;0.20;0.00;;;23.70;47.50;;;;;;4758331;29;20496;-75
2022/07/28 10:53:50;;;;;;;0.63;0.00;;;23.80;47.30;;;;;;4769940;29;20047;-75
2022/07/28 10:56:42;;;;;;;0.25;0.10;;;23.80;47.10;;;;;;4775152;30;20142;-75
2022/07/28 10:59:38;;;;;;;0.85;0.50;;;23.80;47.10;;;;;;4784839;29;20451;-75
2022/07/28 11:02:05;;;;;;;0.95;0.20;;;23.90;47.00;;;;;;4789298;29;20063;-75
2022/07/28 11:04:46;;;;;;;0.20;0.05;;;23.90;46.90;;;;;;4744474;30;20047;-74
2022/07/28 11:07:18;;;;;;;1.33;0.00;;;23.90;46.70;;;;;;4786709;29;20053;-75
2022/07/28 11:09:48;;;;;;;0.17;0.00;;;23.90;46.60;;;;;;4794937;29;20448;-75
2022/07/28 11:12:46;;;;;;;0.30;0.10;;;24.00;46.50;;;;;;4811760;29;20054;-75
2022/07/28 11:15:35;;;;;;;0.75;0.10;;;24.20;46.20;;;;;;4797770;29;20054;-75
2022/07/28 11:18:05;;;;;;;0.40;0.10;;;24.20;46.00;;;;;;4785426;29;20078;-76
2022/07/28 11:20:55;;;;;;;0.52;0.08;;;24.20;46.00;;;;;;4808948;29;20431;-76
2022/07/28 11:23:40;;;;;;;0.43;0.10;;;24.40;45.70;;;;;;4806018;29;20055;-75
2022/07/28 11:26:18;;;;;;;0.20;0.10;;;24.50;45.60;;;;;;4783291;30;20055;-75
2022/07/28 11:29:04;;;;;;;0.13;0.00;;;24.50;45.40;;;;;;4786156;29;20062;-77
2022/07/28 11:31:43;;;;;;;0.22;0.10;;;24.70;45.20;;;;;;4790752;29;20055;-80
2022/07/28 11:34:14;;;;;;;0.40;0.10;;;24.90;45.00;;;;;;4783861;29;20083;-75
2022/07/28 11:36:56;;;;;;;0.60;0.10;;;24.90;44.80;;;;;;4800388;29;20063;-74
2022/07/28 11:39:37;;;;;;;1.05;0.10;;;25.00;44.60;;;;;;4770542;30;20051;-74
2022/07/28 11:42:27;;;;;;;0.70;0.03;;;25.10;44.30;;;;;;4785467;29;20126;-74
2022/07/28 11:45:16;;;;;;;0.40;0.10;;;25.30;44.10;;;;;;4788746;29;20598;-75
2022/07/28 11:47:44;;;;;;;0.40;0.10;;;25.40;43.90;;;;;;4781124;29;20146;-74
2022/07/28 11:50:12;;;;;;;0.15;0.05;;;25.30;43.80;;;;;;4800728;29;20515;-74
2022/07/28 11:52:51;;;;;;;0.77;0.10;;;25.30;43.90;;;;;;4785829;29;20110;-74
2022/07/28 11:55:19;;;;;;;0.25;0.08;;;25.40;43.60;;;;;;4784406;29;20489;-74
2022/07/28 11:58:06;;;;;;;0.03;0.00;;;25.40;43.60;;;;;;4776709;29;20043;-74
2022/07/28 12:00:33;;;;;;;0.93;0.20;;;25.60;43.50;;;;;;4781148;29;20075;-82
2022/07/28 12:03:04;;;;;;;1.23;0.20;;;25.70;43.60;;;;;;4779209;29;20043;-82
2022/07/28 12:05:32;;;;;;;1.02;0.10;;;25.70;42.80;;;;;;4790520;29;20043;-83
2022/07/28 12:08:07;;;;;;;0.10;0.10;;;25.80;42.80;;;;;;4772311;30;20085;-84
2022/07/28 12:10:35;;;;;;;0.68;0.10;;;26.20;42.60;;;;;;4785405;29;20047;-83
2022/07/28 12:13:26;;;;;;;0.08;0.08;;;26.70;42.30;;;;;;4790350;29;20059;-83
2022/07/28 12:15:53;;;;;;;0.47;0.20;;;27.20;41.90;;;;;;4787088;29;20074;-83
2022/07/28 12:18:20;;;;;;;0.50;0.10;;;27.50;41.50;;;;;;4801819;29;20067;-83
2022/07/28 12:20:52;;;;;;;0.08;0.00;;;27.90;41.30;;;;;;4786336;29;20047;-84
2022/07/28 12:23:28;;;;;;;0.20;0.00;;;28.10;41.60;;;;;;4787219;29;20047;-83
2022/07/28 12:26:11;;;;;;;0.17;0.03;;;28.40;40.70;;;;;;4799662;29;20047;-84
2022/07/28 12:28:49;;;;;;;1.63;0.10;;;28.30;40.70;;;;;;4781874;30;20051;-84
2022/07/28 12:31:16;;;;;;;0.20;0.10;;;28.10;40.90;;;;;;4802727;29;20529;-83
2022/07/28 12:33:43;;;;;;;0.20;0.10;;;27.70;41.20;;;;;;4787337;30;20130;-84
2022/07/28 12:36:10;;;;;;;0.60;0.10;;;27.10;41.40;;;;;;4788602;29;20051;-86
2022/07/28 12:38:37;;;;;;;0.10;0.03;;;27.10;41.80;;;;;;4774760;29;20096;-82
2022/07/28 12:41:15;;;;;;;0.40;0.10;;;27.70;41.40;;;;;;4780592;29;20043;-84
2022/07/28 12:43:53;;;;;;;0.03;0.00;;;28.40;40.60;;;;;;4777368;29;20050;-84
2022/07/28 12:46:25;;;;;;;0.60;0.00;;;28.90;40.20;;;;;;4784521;29;20044;-84
2022/07/28 12:48:56;;;;;;;0.32;0.10;;;29.10;40.10;;;;;;4788790;29;20047;-84
2022/07/28 12:51:35;;;;;;;1.00;0.10;;;29.70;39.70;;;;;;4789762;30;20066;-83
2022/07/28 12:54:03;;;;;;;0.35;0.17;;;30.10;38.80;;;;;;4804438;29;20047;-83
2022/07/28 12:56:42;;;;;;;0.70;0.10;;;30.10;38.60;;;;;;4791276;29;20103;-85
2022/07/28 12:59:11;;;;;;;0.80;0.10;;;29.80;38.70;;;;;;4789941;29;20078;-83
2022/07/28 13:01:53;;;;;;;0.95;0.10;;;29.60;39.10;;;;;;4771525;30;20109;-79
2022/07/28 13:04:45;;;;;;;0.35;0.13;;;30.30;38.40;;;;;;4793523;29;20051;-79
2022/07/28 13:07:19;;;;;;;;;;;30.80;38.10;;;;;;4777338;29;20051;-79
2022/07/28 13:09:48;;;;;;;1.55;0.10;;;30.90;38.30;;;;;;4781139;29;19925;-79
2022/07/28 13:12:27;;;;;;;0.63;0.00;;;30.80;38.30;;;;;;4788151;29;20686;-80
2022/07/28 13:14:56;;;;;;;0.20;0.00;;;30.80;38.40;;;;;;4782358;29;20090;-81
2022/07/28 13:17:25;;;;;;;0.93;0.10;;;31.10;38.00;;;;;;4787177;29;20063;-79
2022/07/28 13:20:04;;;;;;;0.43;0.10;;;31.40;38.10;;;;;;4793423;29;20468;-80